Time;durP1;ratioP1;P1;durP2;ratioP2;P2;SDS_P1;SDS_P2;PMS_P1;PMS_P2;Temp;Humidity;BMP_temperature;BMP_pressure;BME280_temperature;BME280_humidity;BME280_pressure;Samples;Min_cycle;Max_cycle;Signal;HPM_P1;HPM_P2
2022/09/13 00:00:51;;;;;;;14.10;7.50;;;13.90;99.90;;;;;;5109006;28;20615;-52
2022/09/13 00:03:20;;;;;;;9.00;7.80;;;13.90;99.90;;;;;;5099671;28;20197;-51
2022/09/13 00:05:48;;;;;;;7.93;7.13;;;13.90;99.90;;;;;;5097596;28;20200;-51
2022/09/13 00:08:17;;;;;;;10.50;8.10;;;13.80;99.90;;;;;;5094568;28;20743;-52
2022/09/13 00:10:46;;;;;;;10.00;7.70;;;13.80;99.90;;;;;;5100223;28;20254;-52
2022/09/13 00:13:17;;;;;;;10.93;8.03;;;13.80;99.90;;;;;;5111138;28;20243;-51
2022/09/13 00:15:47;;;;;;;10.60;7.93;;;13.80;99.90;;;;;;5099279;28;20222;-52
2022/09/13 00:18:17;;;;;;;10.43;7.83;;;13.80;99.90;;;;;;5107005;28;20323;-51
2022/09/13 00:20:45;;;;;;;12.27;7.93;;;13.80;99.90;;;;;;5109345;28;20299;-52
2022/09/13 00:23:14;;;;;;;9.07;7.30;;;13.70;99.90;;;;;;5097929;28;20212;-51
2022/09/13 00:25:42;;;;;;;9.93;7.43;;;13.70;99.90;;;;;;5110055;28;20203;-51
2022/09/13 00:28:10;;;;;;;9.83;7.63;;;13.60;99.90;;;;;;5108102;28;20221;-52
2022/09/13 00:30:39;;;;;;;9.57;7.47;;;13.60;99.90;;;;;;5105849;28;20303;-51
2022/09/13 00:33:07;;;;;;;8.50;7.53;;;13.70;99.90;;;;;;5109104;28;20214;-51
2022/09/13 00:35:35;;;;;;;8.70;7.33;;;13.60;99.90;;;;;;5104405;28;20294;-51
2022/09/13 00:38:03;;;;;;;10.17;7.27;;;13.60;99.90;;;;;;5113574;28;20223;-52
2022/09/13 00:40:36;;;;;;;8.33;7.17;;;13.50;99.90;;;;;;5112729;28;20231;-52
2022/09/13 00:43:04;;;;;;;8.90;7.90;;;13.50;99.90;;;;;;5112309;28;20716;-51
2022/09/13 00:45:32;;;;;;;8.87;7.63;;;13.50;99.90;;;;;;5113364;28;20210;-52
2022/09/13 00:48:06;;;;;;;9.23;7.33;;;13.50;99.90;;;;;;5106684;28;20220;-52
2022/09/13 00:50:37;;;;;;;9.80;8.37;;;13.50;99.90;;;;;;5103156;28;20306;-52
2022/09/13 00:53:14;;;;;;;11.50;8.13;;;13.40;99.90;;;;;;5112501;28;20838;-52
2022/09/13 00:55:46;;;;;;;14.67;8.47;;;13.50;99.90;;;;;;5113023;28;20205;-51
2022/09/13 00:58:18;;;;;;;9.17;8.17;;;13.50;99.90;;;;;;5112695;28;20231;-51
2022/09/13 01:00:47;;;;;;;9.70;8.30;;;13.50;99.90;;;;;;5112515;28;20691;-51
2022/09/13 01:03:21;;;;;;;12.33;8.93;;;13.60;99.90;;;;;;5103444;28;20203;-51
2022/09/13 01:05:54;;;;;;;9.70;8.33;;;13.50;99.90;;;;;;5110902;28;20303;-52
2022/09/13 01:08:23;;;;;;;11.97;8.93;;;13.60;99.90;;;;;;5112222;28;20310;-51
2022/09/13 01:10:53;;;;;;;9.40;8.30;;;13.60;99.90;;;;;;5110926;28;20254;-52
2022/09/13 01:13:24;;;;;;;10.07;7.97;;;13.60;99.90;;;;;;5112303;28;20279;-52
2022/09/13 01:15:53;;;;;;;12.67;8.57;;;13.50;99.90;;;;;;5111333;28;20295;-52
2022/09/13 01:18:22;;;;;;;10.07;7.60;;;13.50;99.90;;;;;;5110610;28;20258;-52
2022/09/13 01:21:24;;;;;;;10.00;7.90;;;13.50;99.90;;;;;;5112300;28;20286;-52
2022/09/13 01:24:28;;;;;;;13.60;8.13;;;13.40;99.90;;;;;;5112100;28;20289;-52
2022/09/13 01:27:30;;;;;;;10.43;8.37;;;13.40;99.90;;;;;;5111841;28;20251;-52
2022/09/13 01:30:08;;;;;;;9.87;7.90;;;13.40;99.90;;;;;;5106696;28;20310;-51
2022/09/13 01:33:16;;;;;;;11.87;8.27;;;13.30;99.90;;;;;;5111669;28;20234;-52
2022/09/13 01:36:07;;;;;;;9.90;8.47;;;13.30;99.90;;;;;;5001693;28;20241;-52
2022/09/13 01:38:53;;;;;;;9.03;7.50;;;13.30;99.90;;;;;;5028177;28;20691;-52
2022/09/13 01:41:36;;;;;;;8.63;7.70;;;13.30;99.90;;;;;;5088957;28;20235;-52
2022/09/13 01:44:15;;;;;;;9.63;8.23;;;13.20;99.90;;;;;;5111710;28;20669;-51
2022/09/13 01:46:49;;;;;;;10.57;8.57;;;13.30;99.90;;;;;;5111864;28;20286;-51
2022/09/13 01:49:23;;;;;;;10.47;8.40;;;13.30;99.90;;;;;;5111161;28;20682;-52
2022/09/13 01:51:56;;;;;;;9.53;8.43;;;13.30;99.90;;;;;;5111564;28;20206;-52
2022/09/13 01:54:32;;;;;;;10.20;8.83;;;13.30;99.90;;;;;;5109267;28;20223;-52
2022/09/13 01:57:06;;;;;;;10.93;9.10;;;13.20;99.90;;;;;;5111567;28;20282;-52
2022/09/13 01:59:49;;;;;;;12.07;8.97;;;13.20;99.90;;;;;;5111296;28;20287;-51
2022/09/13 02:02:23;;;;;;;11.40;8.07;;;13.20;99.90;;;;;;5111561;28;20231;-52
2022/09/13 02:04:56;;;;;;;9.43;8.43;;;13.20;99.90;;;;;;5107419;28;20291;-52
2022/09/13 02:07:29;;;;;;;10.87;8.33;;;13.30;99.90;;;;;;5110673;28;20667;-52
2022/09/13 02:10:02;;;;;;;9.03;8.07;;;13.30;99.90;;;;;;5111322;28;20258;-52
2022/09/13 02:12:34;;;;;;;10.63;8.37;;;13.30;99.90;;;;;;5110704;28;20234;-51
2022/09/13 02:15:09;;;;;;;9.67;8.57;;;13.40;99.90;;;;;;5110791;28;20243;-52
2022/09/13 02:17:42;;;;;;;9.63;8.37;;;13.50;99.90;;;;;;5110989;28;20223;-51
2022/09/13 02:20:15;;;;;;;10.60;8.57;;;13.50;99.90;;;;;;5110977;28;20703;-52
2022/09/13 02:22:48;;;;;;;13.83;8.97;;;13.50;99.90;;;;;;5110350;28;20282;-51
2022/09/13 02:25:20;;;;;;;11.17;9.57;;;13.50;99.90;;;;;;5110942;28;20241;-50
2022/09/13 02:27:52;;;;;;;9.77;8.77;;;13.50;99.90;;;;;;5108994;28;20254;-51
2022/09/13 02:30:21;;;;;;;13.10;9.47;;;13.50;99.90;;;;;;5082356;28;20259;-51
2022/09/13 02:32:55;;;;;;;11.07;9.90;;;13.50;99.90;;;;;;5109486;28;20214;-51
2022/09/13 02:35:28;;;;;;;12.60;9.80;;;13.50;99.90;;;;;;5110649;28;20301;-52
2022/09/13 02:38:02;;;;;;;11.47;9.07;;;13.60;99.90;;;;;;5110767;28;20245;-52
2022/09/13 02:40:37;;;;;;;12.40;9.70;;;13.50;99.90;;;;;;5110610;28;20809;-51
2022/09/13 02:43:11;;;;;;;11.97;9.63;;;13.50;99.90;;;;;;5110617;28;20218;-52
2022/09/13 02:45:47;;;;;;;10.77;9.67;;;13.50;99.90;;;;;;5110009;28;20676;-52
2022/09/13 02:48:25;;;;;;;10.87;8.50;;;13.50;99.90;;;;;;5110359;28;20249;-52
2022/09/13 02:51:00;;;;;;;9.43;8.40;;;13.60;99.90;;;;;;5110436;28;20250;-52
2022/09/13 02:53:34;;;;;;;10.43;8.40;;;13.60;99.90;;;;;;5110200;28;20203;-52
2022/09/13 02:56:09;;;;;;;10.20;9.07;;;13.60;99.90;;;;;;5085578;28;20603;-51
2022/09/13 02:58:45;;;;;;;11.67;9.10;;;13.60;99.90;;;;;;5109857;28;20257;-52
2022/09/13 03:01:14;;;;;;;11.50;9.23;;;13.60;99.90;;;;;;5110859;28;20225;-52
2022/09/13 03:03:44;;;;;;;10.67;9.17;;;13.70;99.90;;;;;;5108817;28;20203;-52
2022/09/13 03:06:12;;;;;;;11.17;8.60;;;13.60;99.90;;;;;;5110036;28;20203;-51
2022/09/13 03:08:40;;;;;;;11.77;8.40;;;13.70;99.90;;;;;;5110454;28;20261;-51
2022/09/13 03:11:17;;;;;;;10.00;8.87;;;13.70;99.90;;;;;;5109587;28;20222;-51
2022/09/13 03:14:17;;;;;;;10.50;8.90;;;13.80;99.90;;;;;;5109904;28;20298;-52
2022/09/13 03:17:00;;;;;;;10.60;8.83;;;13.80;99.90;;;;;;5109562;28;20654;-52
2022/09/13 03:19:48;;;;;;;10.17;8.77;;;13.90;99.90;;;;;;5109966;28;20207;-52
2022/09/13 03:22:36;;;;;;;9.67;8.67;;;13.90;99.90;;;;;;5110028;28;20291;-51
2022/09/13 03:25:12;;;;;;;9.63;8.03;;;14.00;99.90;;;;;;5109798;28;20223;-52
2022/09/13 03:27:52;;;;;;;11.43;8.60;;;14.00;99.90;;;;;;5108910;28;20223;-52
2022/09/13 03:30:20;;;;;;;13.40;8.27;;;14.00;99.90;;;;;;5077809;28;20641;-52
2022/09/13 03:32:53;;;;;;;9.87;8.50;;;14.00;99.90;;;;;;5100773;28;20204;-51
2022/09/13 03:35:29;;;;;;;10.97;9.07;;;14.10;99.90;;;;;;5108755;28;20207;-52
2022/09/13 03:38:01;;;;;;;9.60;8.60;;;14.10;99.90;;;;;;5112556;28;20226;-51
2022/09/13 03:40:40;;;;;;;10.90;9.13;;;14.10;99.90;;;;;;5115966;28;20859;-51
2022/09/13 03:43:13;;;;;;;9.93;8.87;;;14.10;99.90;;;;;;5116455;28;20247;-51
2022/09/13 03:45:46;;;;;;;10.30;8.53;;;14.10;99.90;;;;;;5116419;28;20459;-52
2022/09/13 03:48:15;;;;;;;12.90;9.13;;;14.10;99.90;;;;;;5116813;28;20269;-51
2022/09/13 03:50:46;;;;;;;10.83;9.10;;;14.10;99.90;;;;;;5087819;28;20219;-52
2022/09/13 03:53:19;;;;;;;11.47;8.77;;;14.10;99.90;;;;;;5116083;28;20207;-50
2022/09/13 03:55:47;;;;;;;10.23;9.07;;;14.10;99.90;;;;;;5116535;28;20242;-51
2022/09/13 03:58:17;;;;;;;14.60;8.67;;;14.20;99.90;;;;;;5115925;28;20251;-50
2022/09/13 04:00:46;;;;;;;9.10;8.20;;;14.10;99.90;;;;;;5116424;28;20235;-51
2022/09/13 04:03:15;;;;;;;9.57;8.57;;;14.20;99.90;;;;;;5116438;28;20214;-52
2022/09/13 04:05:45;;;;;;;8.87;7.97;;;14.20;99.90;;;;;;5111492;28;20235;-50
2022/09/13 04:08:13;;;;;;;10.87;8.27;;;14.20;99.90;;;;;;5102882;28;20265;-51
2022/09/13 04:10:41;;;;;;;10.07;8.77;;;14.20;99.90;;;;;;5116297;28;20255;-52
2022/09/13 04:13:09;;;;;;;10.60;8.10;;;14.30;99.90;;;;;;5115864;28;20613;-51
2022/09/13 04:15:37;;;;;;;9.73;7.87;;;14.30;99.90;;;;;;5115740;28;20303;-52
2022/09/13 04:18:05;;;;;;;12.30;8.77;;;14.20;99.90;;;;;;5116351;28;20310;-52
2022/09/13 04:20:35;;;;;;;8.97;7.80;;;14.30;99.90;;;;;;5116093;28;20215;-52
2022/09/13 04:23:05;;;;;;;9.50;8.47;;;14.30;99.90;;;;;;5115628;28;20295;-51
2022/09/13 04:25:33;;;;;;;11.20;9.43;;;14.30;99.90;;;;;;5115914;28;20210;-52
2022/09/13 04:28:01;;;;;;;11.67;9.10;;;14.40;99.90;;;;;;5113194;28;20661;-51
2022/09/13 04:30:29;;;;;;;9.97;8.93;;;14.40;99.90;;;;;;5110213;28;20253;-52
2022/09/13 04:32:58;;;;;;;12.33;9.17;;;14.40;99.90;;;;;;5107355;28;20287;-51
2022/09/13 04:35:27;;;;;;;12.53;10.37;;;14.40;99.90;;;;;;5087708;28;20215;-51
2022/09/13 04:37:57;;;;;;;11.63;10.43;;;14.40;99.90;;;;;;5115531;28;20259;-52
2022/09/13 04:40:26;;;;;;;12.43;9.63;;;14.50;99.90;;;;;;5115481;28;20306;-51
2022/09/13 04:42:54;;;;;;;11.13;9.90;;;14.50;99.90;;;;;;5115769;28;20668;-52
2022/09/13 04:45:22;;;;;;;12.50;10.80;;;14.50;99.90;;;;;;5115599;28;20235;-52
2022/09/13 04:47:52;;;;;;;13.43;9.63;;;14.50;99.90;;;;;;5116307;28;20293;-52
2022/09/13 04:50:21;;;;;;;12.10;10.30;;;14.50;99.90;;;;;;5111156;28;20281;-52
2022/09/13 04:52:49;;;;;;;11.03;9.70;;;14.50;99.90;;;;;;5112284;28;20319;-50
2022/09/13 04:55:17;;;;;;;11.90;9.13;;;14.60;99.90;;;;;;5112150;28;20696;-51
2022/09/13 04:57:46;;;;;;;9.70;8.63;;;14.50;99.90;;;;;;5111885;28;20234;-51
2022/09/13 05:00:15;;;;;;;10.43;9.33;;;14.50;99.90;;;;;;5112613;28;20676;-51
2022/09/13 05:02:43;;;;;;;12.13;10.27;;;14.50;99.90;;;;;;5112106;28;20683;-51
2022/09/13 05:05:11;;;;;;;13.40;11.40;;;14.50;99.90;;;;;;5111485;28;20857;-51
2022/09/13 05:07:39;;;;;;;12.30;10.67;;;14.60;99.90;;;;;;5112095;28;20219;-52
2022/09/13 05:10:09;;;;;;;11.63;10.10;;;14.60;99.90;;;;;;5112248;28;20203;-51
2022/09/13 05:12:37;;;;;;;15.10;10.93;;;14.60;99.90;;;;;;5111904;28;20227;-51
2022/09/13 05:15:07;;;;;;;12.10;10.47;;;14.70;99.90;;;;;;5112073;28;20695;-51
2022/09/13 05:17:36;;;;;;;12.17;10.30;;;14.70;99.90;;;;;;5112342;28;20636;-51
2022/09/13 05:20:05;;;;;;;13.77;10.63;;;14.70;99.90;;;;;;5112189;28;20238;-51
2022/09/13 05:22:33;;;;;;;16.00;11.73;;;14.70;99.90;;;;;;5112410;28;20195;-52
2022/09/13 05:25:01;;;;;;;12.20;10.60;;;14.80;99.90;;;;;;5112385;28;20203;-52
2022/09/13 05:27:29;;;;;;;13.47;11.17;;;14.80;99.90;;;;;;5111708;28;20262;-52
2022/09/13 05:29:57;;;;;;;16.37;11.97;;;14.80;99.90;;;;;;5107785;28;20235;-52
2022/09/13 05:32:27;;;;;;;13.83;11.23;;;14.80;99.90;;;;;;5092530;28;20721;-51
2022/09/13 05:34:55;;;;;;;11.60;10.03;;;14.90;99.90;;;;;;5089406;28;20646;-51
2022/09/13 05:37:23;;;;;;;12.57;10.03;;;14.90;99.90;;;;;;5090797;28;20259;-52
2022/09/13 05:39:51;;;;;;;13.30;10.90;;;14.90;99.90;;;;;;5090454;28;20295;-51
2022/09/13 05:42:39;;;;;;;13.97;10.93;;;14.90;99.90;;;;;;5090528;28;20204;-51
2022/09/13 05:45:09;;;;;;;14.00;11.77;;;14.90;99.90;;;;;;5090952;28;20291;-52
2022/09/13 05:47:38;;;;;;;14.73;11.03;;;14.90;99.90;;;;;;5088847;28;20224;-52
2022/09/13 05:50:07;;;;;;;14.57;11.50;;;14.90;99.90;;;;;;5090989;28;20228;-51
2022/09/13 05:52:40;;;;;;;14.20;12.03;;;14.90;99.90;;;;;;5088757;28;20204;-51
2022/09/13 05:55:09;;;;;;;14.93;11.53;;;14.90;99.90;;;;;;5090759;28;20196;-51
2022/09/13 05:57:37;;;;;;;14.00;12.47;;;14.90;99.90;;;;;;5087831;28;20224;-51
2022/09/13 06:00:06;;;;;;;15.87;12.63;;;14.90;99.90;;;;;;5090068;28;20287;-51
2022/09/13 06:02:34;;;;;;;15.17;12.93;;;14.90;99.90;;;;;;5089880;28;20247;-51
2022/09/13 06:05:05;;;;;;;16.83;12.63;;;14.90;99.90;;;;;;5090970;28;20201;-51
2022/09/13 06:07:34;;;;;;;16.20;13.17;;;14.90;99.90;;;;;;5090098;28;20720;-52
2022/09/13 06:10:03;;;;;;;15.93;12.50;;;15.00;99.90;;;;;;5090795;28;20326;-51
2022/09/13 06:12:31;;;;;;;20.27;16.37;;;15.00;99.90;;;;;;5095937;28;20256;-51
2022/09/13 06:14:59;;;;;;;20.27;16.30;;;15.00;99.90;;;;;;5096440;28;20216;-51
2022/09/13 06:17:27;;;;;;;20.20;15.67;;;15.00;99.90;;;;;;5091070;28;20220;-51
2022/09/13 06:19:56;;;;;;;19.13;13.17;;;15.00;99.90;;;;;;5090310;28;20243;-51
2022/09/13 06:22:31;;;;;;;17.27;13.57;;;15.00;99.90;;;;;;5089871;28;20204;-51
2022/09/13 06:25:00;;;;;;;14.53;12.37;;;15.00;99.90;;;;;;5090780;28;20274;-50
2022/09/13 06:27:30;;;;;;;18.60;12.63;;;15.00;99.90;;;;;;5089501;28;20267;-51
2022/09/13 06:29:58;;;;;;;14.13;12.37;;;14.90;99.90;;;;;;5090315;28;20708;-51
2022/09/13 06:32:26;;;;;;;16.70;13.03;;;15.00;99.90;;;;;;5090377;28;20294;-51
2022/09/13 06:34:54;;;;;;;15.40;12.23;;;15.00;99.90;;;;;;5090056;28;20269;-51
2022/09/13 06:37:22;;;;;;;15.00;12.27;;;15.00;99.90;;;;;;5090344;28;20228;-51
2022/09/13 06:39:52;;;;;;;14.63;12.03;;;15.00;99.90;;;;;;5090195;28;20295;-51
2022/09/13 06:42:20;;;;;;;15.37;12.97;;;15.00;99.90;;;;;;5090220;28;20212;-51
2022/09/13 06:44:48;;;;;;;17.87;14.57;;;15.00;99.90;;;;;;5097597;28;20712;-51
2022/09/13 06:47:16;;;;;;;19.27;14.83;;;15.10;99.90;;;;;;5110262;28;20969;-50
2022/09/13 06:49:44;;;;;;;16.37;14.13;;;15.10;99.90;;;;;;5110480;28;20242;-51
2022/09/13 06:52:12;;;;;;;16.70;12.77;;;15.20;99.90;;;;;;5110218;28;20309;-51
2022/09/13 06:54:40;;;;;;;17.97;14.43;;;15.20;99.90;;;;;;5110730;28;20214;-51
2022/09/13 06:57:10;;;;;;;14.83;13.13;;;15.30;99.90;;;;;;5109752;28;20224;-51
2022/09/13 06:59:38;;;;;;;18.17;15.17;;;15.40;99.90;;;;;;5098851;28;20292;-50
2022/09/13 07:02:06;;;;;;;22.20;16.90;;;15.40;99.90;;;;;;5088350;28;20441;-50
2022/09/13 07:04:34;;;;;;;19.13;15.77;;;15.60;99.90;;;;;;5089601;28;20209;-50
2022/09/13 07:07:02;;;;;;;19.00;15.90;;;15.60;99.90;;;;;;5082839;28;20322;-51
2022/09/13 07:09:30;;;;;;;17.60;15.30;;;15.70;99.90;;;;;;5088649;28;20592;-51
2022/09/13 07:11:58;;;;;;;18.25;14.30;;;15.80;99.90;;;;;;5097784;28;20235;-51
2022/09/13 07:14:29;;;;;;;17.48;14.45;;;15.90;99.90;;;;;;5099106;28;20262;-52
2022/09/13 07:16:57;;;;;;;16.80;14.55;;;15.90;99.90;;;;;;5108744;28;20335;-51
2022/09/13 07:19:27;;;;;;;17.98;15.40;;;15.90;99.90;;;;;;5084710;28;20732;-51
2022/09/13 07:21:56;;;;;;;15.80;13.75;;;15.90;99.90;;;;;;5085574;28;20264;-51
2022/09/13 07:24:26;;;;;;;15.83;13.93;;;16.00;99.90;;;;;;5087257;28;20291;-51
2022/09/13 07:26:54;;;;;;;16.85;14.50;;;16.00;99.90;;;;;;5091562;28;20212;-51
2022/09/13 07:29:23;;;;;;;16.77;13.70;;;16.00;99.90;;;;;;5085512;28;20684;-52
2022/09/13 07:31:55;;;;;;;18.33;14.27;;;16.00;99.90;;;;;;5081051;28;20196;-50
2022/09/13 07:34:25;;;;;;;16.05;14.25;;;16.10;99.90;;;;;;5075687;28;20213;-51
2022/09/13 07:36:53;;;;;;;17.40;15.52;;;16.10;99.90;;;;;;5070769;28;20296;-51
2022/09/13 07:39:23;;;;;;;15.98;13.95;;;16.20;99.90;;;;;;5080235;28;20559;-51
2022/09/13 07:41:52;;;;;;;15.82;13.90;;;16.30;99.90;;;;;;5077921;28;20675;-51
2022/09/13 07:44:21;;;;;;;14.63;13.07;;;16.30;99.90;;;;;;5069913;28;20213;-51
2022/09/13 07:46:49;;;;;;;18.63;14.02;;;16.40;99.90;;;;;;5073423;28;20208;-51
2022/09/13 07:49:19;;;;;;;16.85;14.68;;;16.40;99.90;;;;;;5068431;28;20662;-50
2022/09/13 07:51:50;;;;;;;17.80;13.93;;;16.50;99.90;;;;;;5068667;28;20205;-51
2022/09/13 07:54:19;;;;;;;15.82;13.82;;;16.40;99.90;;;;;;5068444;28;20309;-51
2022/09/13 07:56:49;;;;;;;17.08;13.48;;;16.40;99.90;;;;;;5072750;28;20741;-52
2022/09/13 07:59:18;;;;;;;20.60;14.40;;;16.40;99.90;;;;;;5072835;28;20720;-52
2022/09/13 08:01:48;;;;;;;20.15;14.80;;;16.50;99.90;;;;;;5068211;28;20212;-51
2022/09/13 08:04:20;;;;;;;18.10;13.68;;;16.50;99.90;;;;;;5073175;28;20200;-51
2022/09/13 08:06:48;;;;;;;21.13;14.43;;;16.50;99.90;;;;;;5073171;28;20243;-51
2022/09/13 08:09:17;;;;;;;16.30;14.05;;;16.60;99.90;;;;;;5081610;28;20214;-51
2022/09/13 08:11:47;;;;;;;16.98;13.23;;;16.70;99.90;;;;;;5090467;28;20235;-51
2022/09/13 08:14:17;;;;;;;19.27;16.65;;;16.70;99.90;;;;;;5087583;28;20784;-52
2022/09/13 08:16:46;;;;;;;22.55;17.63;;;16.70;99.90;;;;;;5089347;28;20204;-51
2022/09/13 08:19:16;;;;;;;28.10;22.73;;;16.90;99.90;;;;;;5089921;28;20200;-52
2022/09/13 08:21:47;;;;;;;21.05;18.42;;;16.90;99.90;;;;;;5094423;28;20295;-52
2022/09/13 08:24:17;;;;;;;15.05;13.40;;;17.00;99.90;;;;;;5090489;28;20204;-51
2022/09/13 08:26:46;;;;;;;16.15;13.73;;;17.10;99.90;;;;;;5096823;28;20258;-52
2022/09/13 08:29:15;;;;;;;15.73;13.88;;;17.20;99.90;;;;;;5091511;28;20556;-51
2022/09/13 08:31:43;;;;;;;20.92;17.08;;;17.30;99.90;;;;;;5098094;28;20280;-52
2022/09/13 08:34:13;;;;;;;17.50;14.43;;;17.40;99.90;;;;;;5097133;28;20282;-51
2022/09/13 08:36:42;;;;;;;17.90;14.70;;;17.50;99.90;;;;;;5079604;28;20896;-51
2022/09/13 08:39:12;;;;;;;15.10;13.50;;;17.80;99.90;;;;;;5074893;28;20243;-51
2022/09/13 08:42:10;;;;;;;16.67;12.60;;;17.80;99.90;;;;;;5086599;28;20205;-51
2022/09/13 08:44:45;;;;;;;15.30;13.15;;;18.00;99.90;;;;;;5089011;28;20197;-52
2022/09/13 08:47:30;;;;;;;15.50;13.82;;;18.20;99.90;;;;;;5091473;28;20234;-51
2022/09/13 08:50:06;;;;;;;15.57;12.82;;;18.40;99.90;;;;;;5086732;28;20208;-52
2022/09/13 08:52:40;;;;;;;16.17;13.35;;;18.40;99.90;;;;;;5090903;28;20641;-51
2022/09/13 08:55:23;;;;;;;14.25;12.70;;;18.60;99.90;;;;;;5088216;28;20669;-52
2022/09/13 08:57:58;;;;;;;14.95;13.45;;;18.70;99.90;;;;;;5090686;28;20255;-52
2022/09/13 09:00:35;;;;;;;16.35;12.77;;;18.70;99.90;;;;;;5084274;28;20207;-51
2022/09/13 09:03:15;;;;;;;13.60;12.20;;;18.80;99.90;;;;;;5090321;28;20319;-52
2022/09/13 09:05:47;;;;;;;14.68;12.30;;;18.70;99.90;;;;;;5090537;28;20249;-52
2022/09/13 09:08:27;;;;;;;15.40;13.45;;;18.70;99.90;;;;;;5090158;28;20723;-51
2022/09/13 09:11:01;;;;;;;14.43;12.93;;;18.70;99.90;;;;;;5090506;28;20291;-52
2022/09/13 09:13:32;;;;;;;15.82;13.48;;;18.70;99.90;;;;;;5085803;28;20220;-52
2022/09/13 09:16:05;;;;;;;16.63;14.23;;;18.70;99.90;;;;;;5091394;28;20748;-52
2022/09/13 09:18:36;;;;;;;16.13;13.18;;;18.80;99.90;;;;;;5075298;28;20217;-52
2022/09/13 09:21:06;;;;;;;15.98;14.32;;;18.70;99.90;;;;;;5082075;28;20291;-52
2022/09/13 09:23:39;;;;;;;16.83;14.05;;;18.80;99.90;;;;;;5085137;28;20232;-52
2022/09/13 09:26:16;;;;;;;17.00;14.60;;;18.80;99.90;;;;;;5092315;28;20235;-51
2022/09/13 09:28:47;;;;;;;16.00;13.90;;;18.70;99.90;;;;;;5090075;28;20787;-52
2022/09/13 09:31:22;;;;;;;15.48;13.77;;;18.80;99.90;;;;;;5096162;28;20200;-51
2022/09/13 09:34:03;;;;;;;15.10;13.55;;;18.90;99.90;;;;;;5088375;28;20228;-51
2022/09/13 09:36:39;;;;;;;17.52;13.95;;;18.90;99.90;;;;;;5092811;28;20204;-52
2022/09/13 09:39:12;;;;;;;14.32;12.80;;;19.00;99.90;;;;;;5094431;28;20295;-52
2022/09/13 09:41:43;;;;;;;13.93;12.52;;;19.10;99.90;;;;;;5091885;28;20224;-52
2022/09/13 09:44:18;;;;;;;14.77;13.00;;;19.10;99.90;;;;;;5093370;28;20227;-52
2022/09/13 09:46:50;;;;;;;14.82;13.07;;;19.20;99.90;;;;;;5094447;28;20837;-52
2022/09/13 09:52:13;;;;;;;13.63;11.20;;;19.30;99.90;;;;;;5090188;28;20232;-52
2022/09/13 09:54:41;;;;;;;14.20;11.38;;;19.30;99.90;;;;;;5091132;28;20263;-53
2022/09/13 09:57:11;;;;;;;12.25;11.05;;;19.30;99.90;;;;;;5095428;28;20262;-52
2022/09/13 09:59:39;;;;;;;14.15;11.80;;;19.30;99.90;;;;;;5088468;28;20295;-51
2022/09/13 10:02:17;;;;;;;14.13;11.48;;;19.30;99.90;;;;;;5094574;28;20311;-52
2022/09/13 10:04:56;;;;;;;11.55;10.43;;;19.40;99.90;;;;;;5093846;28;20591;-52
2022/09/13 10:07:32;;;;;;;14.48;11.65;;;19.60;99.90;;;;;;5088771;28;20307;-51
2022/09/13 10:10:02;;;;;;;12.10;10.90;;;19.60;99.90;;;;;;5093899;28;20257;-52
2022/09/13 10:12:35;;;;;;;12.88;10.68;;;19.70;99.90;;;;;;5092075;28;20205;-52
2022/09/13 10:15:07;;;;;;;11.02;9.93;;;19.80;99.90;;;;;;5088934;28;20270;-52
2022/09/13 10:17:35;;;;;;;12.30;10.52;;;19.90;99.90;;;;;;5091359;28;20259;-51
2022/09/13 10:20:22;;;;;;;11.65;10.45;;;19.90;99.90;;;;;;5095453;28;20295;-52
2022/09/13 10:23:20;;;;;;;14.80;10.85;;;20.00;99.90;;;;;;5090198;28;20236;-52
2022/09/13 10:26:03;;;;;;;13.88;10.43;;;20.00;99.90;;;;;;5088047;28;20287;-52
2022/09/13 10:28:35;;;;;;;11.40;10.30;;;20.10;99.90;;;;;;5093354;28;20249;-51
2022/09/13 10:31:07;;;;;;;12.75;10.63;;;20.10;99.90;;;;;;5090576;28;20837;-51
2022/09/13 10:33:39;;;;;;;10.38;9.27;;;20.20;99.90;;;;;;5095691;28;20212;-51
2022/09/13 10:36:15;;;;;;;13.80;11.20;;;20.30;99.90;;;;;;5090229;28;20234;-52
2022/09/13 10:39:06;;;;;;;11.77;10.68;;;20.40;99.90;;;;;;5089222;28;20208;-52
2022/09/13 10:41:40;;;;;;;12.23;10.23;;;20.50;99.90;;;;;;5085074;28;20212;-52
2022/09/13 10:44:26;;;;;;;10.55;9.48;;;20.60;99.90;;;;;;5089163;28;20287;-50
2022/09/13 10:46:55;;;;;;;11.07;9.88;;;20.70;99.90;;;;;;5081018;28;20205;-52
2022/09/13 10:49:37;;;;;;;13.65;10.13;;;20.80;99.90;;;;;;5089802;28;20291;-51
2022/09/13 10:52:34;;;;;;;12.05;10.30;;;20.80;99.90;;;;;;5077967;28;20200;-52
2022/09/13 10:55:25;;;;;;;11.50;9.70;;;20.90;99.90;;;;;;5077583;28;20312;-52
2022/09/13 10:57:54;;;;;;;10.32;9.32;;;20.90;99.90;;;;;;5086093;28;20740;-52
2022/09/13 11:00:31;;;;;;;11.13;9.98;;;21.00;99.90;;;;;;5081373;28;20291;-51
2022/09/13 11:03:23;;;;;;;11.30;10.20;;;21.10;99.90;;;;;;5077846;28;20299;-52
2022/09/13 11:06:03;;;;;;;11.35;9.88;;;21.20;99.90;;;;;;5088159;28;20212;-52
2022/09/13 11:08:42;;;;;;;13.60;9.55;;;21.30;99.90;;;;;;5083550;28;20248;-52
2022/09/13 11:11:22;;;;;;;9.80;8.55;;;21.40;99.90;;;;;;5085450;28;20241;-52
2022/09/13 11:14:07;;;;;;;11.15;9.13;;;21.40;99.90;;;;;;5088624;28;20681;-52
2022/09/13 11:16:53;;;;;;;9.65;8.60;;;21.50;99.90;;;;;;5078828;28;20322;-51
2022/09/13 11:19:51;;;;;;;9.30;8.23;;;21.60;99.90;;;;;;5081785;28;20216;-52
2022/09/13 11:23:01;;;;;;;9.45;8.43;;;21.70;99.90;;;;;;5086496;28;20631;-52
2022/09/13 11:25:47;;;;;;;7.95;7.15;;;21.70;99.90;;;;;;5087232;28;20202;-51
2022/09/13 11:28:25;;;;;;;8.40;7.40;;;21.80;99.90;;;;;;5087338;28;20256;-52
2022/09/13 11:31:07;;;;;;;7.72;7.03;;;21.90;99.90;;;;;;5087499;28;20665;-51
2022/09/13 11:33:50;;;;;;;8.27;7.03;;;21.90;99.90;;;;;;5088202;28;20231;-51
2022/09/13 11:36:50;;;;;;;8.82;7.68;;;21.80;99.90;;;;;;5084790;28;20226;-51
2022/09/13 11:39:30;;;;;;;8.43;7.05;;;21.80;99.90;;;;;;5078864;28;20291;-51
2022/09/13 11:42:17;;;;;;;7.88;6.50;;;21.70;99.90;;;;;;5086021;28;20219;-50
2022/09/13 11:45:06;;;;;;;7.70;6.90;;;21.80;99.90;;;;;;5083724;28;20231;-49
2022/09/13 11:47:45;;;;;;;5.00;4.45;;;21.80;99.90;;;;;;5087008;28;20372;-52
2022/09/13 11:50:29;;;;;;;5.47;4.22;;;22.00;99.90;;;;;;5088150;28;20218;-52
2022/09/13 11:53:15;;;;;;;4.80;4.28;;;22.20;99.90;;;;;;5088250;28;20242;-51
2022/09/13 11:55:47;;;;;;;5.90;4.03;;;22.40;99.90;;;;;;5087750;28;20228;-52
2022/09/13 11:58:23;;;;;;;4.32;3.47;;;22.70;99.90;;;;;;5092559;28;20262;-51
2022/09/13 12:00:58;;;;;;;4.00;3.60;;;22.80;99.90;;;;;;5094291;28;20230;-52
2022/09/13 12:03:31;;;;;;;6.15;3.17;;;22.90;99.90;;;;;;5094057;28;20210;-51
2022/09/13 12:06:04;;;;;;;4.50;4.10;;;23.00;99.90;;;;;;5098441;28;20223;-53
2022/09/13 12:08:36;;;;;;;4.43;3.67;;;23.30;99.90;;;;;;5092443;28;20232;-52
2022/09/13 12:11:10;;;;;;;4.88;3.90;;;23.40;99.90;;;;;;5082033;28;20295;-52
2022/09/13 12:13:46;;;;;;;6.28;4.10;;;23.50;99.90;;;;;;5076842;28;20204;-51
2022/09/13 12:16:21;;;;;;;5.10;4.07;;;23.50;99.90;;;;;;5076543;28;20728;-50
2022/09/13 12:18:52;;;;;;;5.72;4.28;;;23.50;99.90;;;;;;5089245;28;20785;-52
2022/09/13 12:21:25;;;;;;;5.78;4.03;;;23.50;99.90;;;;;;5091590;28;20232;-52
2022/09/13 12:24:02;;;;;;;4.60;4.20;;;23.40;99.90;;;;;;5093162;28;20336;-52
2022/09/13 12:26:35;;;;;;;5.53;5.00;;;23.40;99.90;;;;;;5099014;28;20274;-50
2022/09/13 12:29:13;;;;;;;5.05;4.55;;;23.40;99.90;;;;;;5097575;28;20264;-51
2022/09/13 12:31:41;;;;;;;6.22;4.43;;;23.50;99.90;;;;;;5094182;28;20303;-52
2022/09/13 12:34:16;;;;;;;6.80;4.28;;;23.60;99.90;;;;;;5095354;28;20212;-51
2022/09/13 12:37:10;;;;;;;6.38;3.95;;;23.50;99.90;;;;;;5095291;28;20245;-49
2022/09/13 12:39:49;;;;;;;5.18;3.85;;;23.60;99.90;;;;;;5095547;28;20220;-51
2022/09/13 12:42:39;;;;;;;4.80;4.22;;;23.50;99.90;;;;;;5093956;28;20235;-51
2022/09/13 12:45:29;;;;;;;6.53;5.40;;;23.40;99.90;;;;;;5095165;28;20298;-50
2022/09/13 12:48:24;;;;;;;8.68;5.82;;;23.40;99.90;;;;;;5088969;28;20232;-51
2022/09/13 12:51:06;;;;;;;6.75;4.30;;;23.50;99.90;;;;;;5089998;28;20207;-52
2022/09/13 12:54:09;;;;;;;8.15;4.22;;;23.50;99.90;;;;;;5095160;28;20228;-49
2022/09/13 12:56:54;;;;;;;4.80;3.67;;;23.60;99.90;;;;;;5088815;28;20712;-52
2022/09/13 12:59:56;;;;;;;4.22;3.53;;;23.80;99.90;;;;;;5094878;28;20196;-51
2022/09/13 13:02:33;;;;;;;5.10;3.33;;;23.80;99.90;;;;;;5052469;28;20752;-51
2022/09/13 13:05:05;;;;;;;4.60;3.30;;;24.00;99.90;;;;;;5085005;28;20283;-51
2022/09/13 13:07:37;;;;;;;5.63;3.42;;;24.10;99.90;;;;;;5086222;28;20708;-51
2022/09/13 13:10:07;;;;;;;5.20;3.20;;;24.10;99.90;;;;;;5089491;28;20208;-52
2022/09/13 13:12:38;;;;;;;4.45;3.15;;;24.20;99.90;;;;;;5090798;28;20729;-51